Time;durP1;ratioP1;P1;durP2;ratioP2;P2;SDS_P1;SDS_P2;PMS_P1;PMS_P2;Temp;Humidity;BMP_temperature;BMP_pressure;BME280_temperature;BME280_humidity;BME280_pressure;Samples;Min_cycle;Max_cycle;Signal;HPM_P1;HPM_P2
2021/03/14 00:00:02;;;;;;;0.52;0.47;;;;;;;;;;5046830;28;20235;-72
2021/03/14 00:02:28;;;;;;;0.93;0.93;;;;;;;;;;5031519;28;20547;-72
2021/03/14 00:04:54;;;;;;;0.10;0.10;;;;;;;;;;5030087;28;20202;-72
2021/03/14 00:07:20;;;;;;;0.28;0.28;;;;;;;;;;5031417;28;20185;-71
2021/03/14 00:09:47;;;;;;;0.63;0.63;;;;;;;;;;5031416;28;20162;-69
2021/03/14 00:12:13;;;;;;;0.65;0.55;;;;;;;;;;5030274;28;20226;-72
2021/03/14 00:14:39;;;;;;;1.05;1.05;;;;;;;;;;5030155;28;20185;-72
2021/03/14 00:17:05;;;;;;;0.10;0.10;;;;;;;;;;5031337;28;20170;-72
2021/03/14 00:19:31;;;;;;;0.30;0.20;;;;;;;;;;5030049;28;20174;-71
2021/03/14 00:21:57;;;;;;;0.10;0.10;;;;;;;;;;5031323;28;20162;-72
2021/03/14 00:24:24;;;;;;;0.20;0.20;;;;;;;;;;5031007;28;20170;-72
2021/03/14 00:26:50;;;;;;;1.65;1.00;;;;;;;;;;5031034;28;20206;-72
2021/03/14 00:29:16;;;;;;;0.00;0.00;;;;;;;;;;5029802;28;20185;-72
2021/03/14 00:31:42;;;;;;;0.00;0.00;;;;;;;;;;5030946;28;20193;-72
2021/03/14 00:34:08;;;;;;;1.15;1.08;;;;;;;;;;5030999;28;20155;-70
2021/03/14 00:36:34;;;;;;;0.65;0.50;;;;;;;;;;5031043;28;20655;-72
2021/03/14 00:39:01;;;;;;;0.10;0.10;;;;;;;;;;5030947;28;20167;-70
2021/03/14 00:41:27;;;;;;;1.48;1.10;;;;;;;;;;5030756;28;20200;-70
2021/03/14 00:43:53;;;;;;;0.10;0.10;;;;;;;;;;5030798;28;20170;-71
2021/03/14 00:46:19;;;;;;;0.85;0.85;;;;;;;;;;5029395;28;20205;-72
2021/03/14 00:48:46;;;;;;;0.13;0.13;;;;;;;;;;5043808;28;20691;-71
2021/03/14 00:51:12;;;;;;;0.30;0.30;;;;;;;;;;5030550;28;20269;-70
2021/03/14 00:53:38;;;;;;;0.98;0.98;;;;;;;;;;5029400;28;20170;-72
2021/03/14 00:56:04;;;;;;;0.30;0.30;;;;;;;;;;5029324;28;20174;-72
2021/03/14 00:58:30;;;;;;;0.40;0.40;;;;;;;;;;5029280;28;20201;-72
2021/03/14 01:00:56;;;;;;;0.30;0.30;;;;;;;;;;5030426;28;20198;-70
2021/03/14 01:03:23;;;;;;;0.50;0.50;;;;;;;;;;5030481;28;20172;-72
2021/03/14 01:05:49;;;;;;;1.80;0.65;;;;;;;;;;5030301;28;20259;-72
2021/03/14 01:08:19;;;;;;;1.05;0.88;;;;;;;;;;5028966;28;20274;-71
2021/03/14 01:10:45;;;;;;;0.30;0.30;;;;;;;;;;5030226;28;20198;-72
2021/03/14 01:13:12;;;;;;;0.70;0.70;;;;;;;;;;5030263;28;20186;-71
2021/03/14 01:15:38;;;;;;;0.98;0.80;;;;;;;;;;5029016;28;20604;-72
2021/03/14 01:18:05;;;;;;;0.10;0.10;;;;;;;;;;5029674;28;20177;-71
2021/03/14 01:20:31;;;;;;;0.00;0.00;;;;;;;;;;5028818;28;20199;-70
2021/03/14 01:22:57;;;;;;;0.10;0.10;;;;;;;;;;5030032;28;20163;-70
2021/03/14 01:25:23;;;;;;;0.20;0.20;;;;;;;;;;5029973;28;20196;-71
2021/03/14 01:27:50;;;;;;;0.10;0.10;;;;;;;;;;5029922;28;20162;-71
2021/03/14 01:30:17;;;;;;;0.10;0.10;;;;;;;;;;5029857;28;20197;-71
2021/03/14 01:32:44;;;;;;;0.00;0.00;;;;;;;;;;5029940;28;20166;-70
2021/03/14 01:35:11;;;;;;;0.10;0.10;;;;;;;;;;5029812;28;20173;-71
2021/03/14 01:37:37;;;;;;;0.10;0.10;;;;;;;;;;5029952;28;20188;-71
2021/03/14 01:40:04;;;;;;;0.20;0.20;;;;;;;;;;5031452;28;20201;-71
2021/03/14 01:42:31;;;;;;;0.30;0.30;;;;;;;;;;5049644;28;20173;-72
2021/03/14 01:44:57;;;;;;;0.50;0.50;;;;;;;;;;5049397;28;20185;-72
2021/03/14 01:47:29;;;;;;;2.63;2.28;;;;;;;;;;5048068;28;20232;-71
2021/03/14 01:49:55;;;;;;;0.30;0.30;;;;;;;;;;5049338;28;20203;-70
2021/03/14 01:52:22;;;;;;;0.10;0.10;;;;;;;;;;5049324;28;20169;-71
2021/03/14 01:54:48;;;;;;;0.10;0.10;;;;;;;;;;5049279;28;20191;-71
2021/03/14 01:57:15;;;;;;;0.52;0.52;;;;;;;;;;5047982;28;20179;-70
2021/03/14 01:59:41;;;;;;;0.80;0.80;;;;;;;;;;5049222;28;20172;-70
2021/03/14 02:02:08;;;;;;;0.15;0.15;;;;;;;;;;5049257;28;20165;-71
2021/03/14 02:04:34;;;;;;;0.17;0.17;;;;;;;;;;5048038;28;20537;-72
2021/03/14 02:07:00;;;;;;;0.00;0.00;;;;;;;;;;5049146;28;20638;-71
2021/03/14 02:09:26;;;;;;;0.50;0.45;;;;;;;;;;5049143;28;20157;-72
2021/03/14 02:11:53;;;;;;;0.55;0.43;;;;;;;;;;5048991;28;20194;-70
2021/03/14 02:14:19;;;;;;;0.10;0.10;;;;;;;;;;5049138;28;20156;-72
2021/03/14 02:16:48;;;;;;;0.03;0.03;;;;;;;;;;5049085;28;20244;-72
2021/03/14 02:19:20;;;;;;;0.30;0.30;;;;;;;;;;5049003;28;20189;-72
2021/03/14 02:21:47;;;;;;;0.20;0.20;;;;;;;;;;5047702;28;20192;-71
2021/03/14 02:24:16;;;;;;;0.30;0.30;;;;;;;;;;5048946;28;20173;-72
2021/03/14 02:26:45;;;;;;;0.30;0.30;;;;;;;;;;5047678;28;20205;-71
2021/03/14 02:29:13;;;;;;;0.10;0.10;;;;;;;;;;5048155;28;20166;-71
2021/03/14 02:31:41;;;;;;;0.55;0.55;;;;;;;;;;5048701;28;20256;-71
2021/03/14 02:34:13;;;;;;;0.20;0.20;;;;;;;;;;5048883;28;20221;-71
2021/03/14 02:36:40;;;;;;;0.30;0.30;;;;;;;;;;5047674;28;20267;-71
2021/03/14 02:39:10;;;;;;;0.65;0.65;;;;;;;;;;5048836;28;20232;-71
2021/03/14 02:41:37;;;;;;;0.65;0.65;;;;;;;;;;5048885;28;20193;-71
2021/03/14 02:44:03;;;;;;;0.73;0.73;;;;;;;;;;5047854;28;20233;-71
2021/03/14 02:46:30;;;;;;;0.20;0.20;;;;;;;;;;5049067;28;20195;-71
2021/03/14 02:48:58;;;;;;;2.50;0.68;;;;;;;;;;5066787;28;20220;-71
2021/03/14 02:51:24;;;;;;;0.10;0.10;;;;;;;;;;5068853;28;20205;-71
2021/03/14 02:53:51;;;;;;;2.65;0.75;;;;;;;;;;5068963;28;20157;-72
2021/03/14 02:56:18;;;;;;;0.93;0.73;;;;;;;;;;5068946;28;20168;-70
2021/03/14 02:58:44;;;;;;;0.10;0.10;;;;;;;;;;5068942;28;20536;-70
2021/03/14 03:01:10;;;;;;;0.93;0.88;;;;;;;;;;5050994;28;20196;-71
2021/03/14 03:03:37;;;;;;;0.15;0.15;;;;;;;;;;5050987;28;20184;-71
2021/03/14 03:06:04;;;;;;;0.45;0.45;;;;;;;;;;5050809;28;20201;-71
2021/03/14 03:08:31;;;;;;;0.20;0.20;;;;;;;;;;5051127;28;20176;-70
2021/03/14 03:11:01;;;;;;;2.42;0.43;;;;;;;;;;5068783;28;20192;-71
2021/03/14 03:13:29;;;;;;;0.10;0.10;;;;;;;;;;5068737;28;20168;-70
2021/03/14 03:15:58;;;;;;;1.60;1.50;;;;;;;;;;5068673;28;20165;-71
2021/03/14 03:18:24;;;;;;;0.38;0.38;;;;;;;;;;5050848;28;20203;-71
2021/03/14 03:20:52;;;;;;;0.90;0.77;;;;;;;;;;5068670;28;20196;-71
2021/03/14 03:23:18;;;;;;;0.20;0.20;;;;;;;;;;5068700;28;20172;-71
2021/03/14 03:25:44;;;;;;;0.63;0.43;;;;;;;;;;5068613;28;20192;-71
2021/03/14 03:28:14;;;;;;;0.00;0.00;;;;;;;;;;5068643;28;20208;-71
2021/03/14 03:30:41;;;;;;;0.28;0.28;;;;;;;;;;5068512;28;20188;-71
2021/03/14 03:33:08;;;;;;;2.55;0.75;;;;;;;;;;5050715;28;20165;-70
2021/03/14 03:35:34;;;;;;;0.10;0.10;;;;;;;;;;5068597;28;20176;-70
2021/03/14 03:38:01;;;;;;;0.75;0.75;;;;;;;;;;5068589;28;20173;-70
2021/03/14 03:40:29;;;;;;;0.68;0.68;;;;;;;;;;5068667;28;20228;-70
2021/03/14 03:43:07;;;;;;;0.10;0.10;;;;;;;;;;5072118;28;20187;-70
2021/03/14 03:45:38;;;;;;;0.00;0.00;;;;;;;;;;5072082;28;20189;-70
2021/03/14 03:48:05;;;;;;;0.10;0.10;;;;;;;;;;5071781;28;20220;-70
2021/03/14 03:50:32;;;;;;;0.15;0.15;;;;;;;;;;5071877;28;20199;-70
2021/03/14 03:52:59;;;;;;;0.10;0.10;;;;;;;;;;5053907;28;20186;-71
2021/03/14 03:55:26;;;;;;;0.10;0.10;;;;;;;;;;5053805;28;20172;-70
2021/03/14 03:57:54;;;;;;;0.57;0.57;;;;;;;;;;5071772;28;20173;-70
2021/03/14 04:00:21;;;;;;;0.20;0.20;;;;;;;;;;5071513;28;20196;-71
2021/03/14 04:02:48;;;;;;;0.10;0.10;;;;;;;;;;5071800;28;20164;-70
2021/03/14 04:05:15;;;;;;;0.28;0.28;;;;;;;;;;5071634;28;20220;-70
2021/03/14 04:07:43;;;;;;;1.08;0.75;;;;;;;;;;5071615;28;20157;-70
2021/03/14 04:10:10;;;;;;;0.10;0.10;;;;;;;;;;5053434;28;20196;-70
2021/03/14 04:12:40;;;;;;;0.10;0.10;;;;;;;;;;5071335;28;20175;-70
2021/03/14 04:15:11;;;;;;;0.10;0.10;;;;;;;;;;5071600;28;20168;-70
2021/03/14 04:17:38;;;;;;;0.10;0.10;;;;;;;;;;5071312;28;20189;-70
2021/03/14 04:20:06;;;;;;;0.10;0.10;;;;;;;;;;5071327;28;20207;-71
2021/03/14 04:22:32;;;;;;;0.10;0.10;;;;;;;;;;5053298;28;20180;-70
2021/03/14 04:24:59;;;;;;;0.10;0.10;;;;;;;;;;5053289;28;20247;-71
2021/03/14 04:27:26;;;;;;;0.10;0.10;;;;;;;;;;5071246;28;20161;-70
2021/03/14 04:29:54;;;;;;;0.10;0.10;;;;;;;;;;5071207;28;20164;-70
2021/03/14 04:32:21;;;;;;;0.00;0.00;;;;;;;;;;5071132;28;20157;-70
2021/03/14 04:34:48;;;;;;;0.08;0.08;;;;;;;;;;5071159;28;20172;-70
2021/03/14 04:37:14;;;;;;;0.45;0.45;;;;;;;;;;5071041;28;20229;-70
2021/03/14 04:39:41;;;;;;;0.10;0.10;;;;;;;;;;5053057;28;20165;-70
2021/03/14 04:42:08;;;;;;;0.10;0.10;;;;;;;;;;5071076;28;20197;-70
2021/03/14 04:44:34;;;;;;;0.45;0.45;;;;;;;;;;5070859;28;20188;-70
2021/03/14 04:47:00;;;;;;;0.40;0.40;;;;;;;;;;5070657;28;20160;-70
2021/03/14 04:49:26;;;;;;;0.10;0.10;;;;;;;;;;5070659;28;20161;-70
2021/03/14 04:51:52;;;;;;;0.10;0.10;;;;;;;;;;5070397;28;20197;-70
2021/03/14 04:54:19;;;;;;;0.10;0.10;;;;;;;;;;5070290;28;20523;-70
2021/03/14 04:56:46;;;;;;;0.10;0.10;;;;;;;;;;5052747;28;20180;-69
2021/03/14 04:59:13;;;;;;;0.00;0.00;;;;;;;;;;5052751;28;20558;-71
2021/03/14 05:01:40;;;;;;;0.10;0.10;;;;;;;;;;5070640;28;20204;-69
2021/03/14 05:04:08;;;;;;;0.10;0.10;;;;;;;;;;5070567;28;20161;-70
2021/03/14 05:06:35;;;;;;;1.27;1.17;;;;;;;;;;5070414;28;20199;-70
2021/03/14 05:09:02;;;;;;;0.40;0.40;;;;;;;;;;5070466;28;20161;-71
2021/03/14 05:11:29;;;;;;;0.10;0.10;;;;;;;;;;5070081;28;20192;-70
2021/03/14 05:13:55;;;;;;;0.00;0.00;;;;;;;;;;5070316;28;20164;-70
2021/03/14 05:16:22;;;;;;;0.10;0.10;;;;;;;;;;5070371;28;20168;-71
2021/03/14 05:18:48;;;;;;;0.10;0.10;;;;;;;;;;5052303;28;20641;-70
2021/03/14 05:21:15;;;;;;;0.10;0.10;;;;;;;;;;5070147;28;20215;-69
2021/03/14 05:23:41;;;;;;;0.10;0.10;;;;;;;;;;5070159;28;20164;-68
2021/03/14 05:26:12;;;;;;;0.10;0.10;;;;;;;;;;5052070;28;20209;-69
2021/03/14 05:28:39;;;;;;;0.10;0.10;;;;;;;;;;5070092;28;20164;-71
2021/03/14 05:31:24;;;;;;;0.08;0.08;;;;;;;;;;5052095;28;20231;-70
2021/03/14 05:33:50;;;;;;;0.25;0.25;;;;;;;;;;5051971;28;20175;-70
2021/03/14 05:36:16;;;;;;;0.10;0.10;;;;;;;;;;5051958;28;20172;-70
2021/03/14 05:38:42;;;;;;;0.08;0.08;;;;;;;;;;5051957;28;20164;-70
2021/03/14 05:41:09;;;;;;;0.10;0.10;;;;;;;;;;5069857;28;20192;-70
2021/03/14 05:43:37;;;;;;;0.63;0.63;;;;;;;;;;5069758;28;20195;-70
2021/03/14 05:46:03;;;;;;;0.00;0.00;;;;;;;;;;5052082;28;20192;-70
2021/03/14 05:48:29;;;;;;;0.10;0.10;;;;;;;;;;5069257;28;20639;-70
2021/03/14 05:50:55;;;;;;;0.10;0.10;;;;;;;;;;5069596;28;20189;-71
2021/03/14 05:53:22;;;;;;;0.22;0.22;;;;;;;;;;5069520;28;20157;-70
2021/03/14 05:55:49;;;;;;;0.10;0.10;;;;;;;;;;5069780;28;20169;-70
2021/03/14 05:58:16;;;;;;;0.00;0.00;;;;;;;;;;5069061;28;20165;-70
2021/03/14 06:00:42;;;;;;;0.75;0.75;;;;;;;;;;5049007;28;20224;-70
2021/03/14 06:03:10;;;;;;;0.10;0.10;;;;;;;;;;5049465;28;20183;-70
2021/03/14 06:05:36;;;;;;;0.10;0.10;;;;;;;;;;5048076;28;20197;-70
2021/03/14 06:08:03;;;;;;;0.10;0.10;;;;;;;;;;5048236;28;20593;-71
2021/03/14 06:10:30;;;;;;;0.03;0.03;;;;;;;;;;5049347;28;20669;-70
2021/03/14 06:12:56;;;;;;;0.10;0.10;;;;;;;;;;5048120;28;20173;-70
2021/03/14 06:15:22;;;;;;;0.08;0.08;;;;;;;;;;5049348;28;20189;-71
2021/03/14 06:17:48;;;;;;;0.00;0.00;;;;;;;;;;5049404;28;20253;-70
2021/03/14 06:20:37;;;;;;;0.10;0.10;;;;;;;;;;5047948;28;20228;-71
2021/03/14 06:23:08;;;;;;;0.00;0.00;;;;;;;;;;5048011;28;20203;-70
2021/03/14 06:25:34;;;;;;;0.05;0.05;;;;;;;;;;5048011;28;20292;-70
2021/03/14 06:28:01;;;;;;;0.10;0.10;;;;;;;;;;5047980;28;20181;-70
2021/03/14 06:30:28;;;;;;;0.10;0.10;;;;;;;;;;5049179;28;20228;-70
2021/03/14 06:33:20;;;;;;;0.00;0.00;;;;;;;;;;5042465;28;20186;-70
2021/03/14 06:35:51;;;;;;;0.00;0.00;;;;;;;;;;5027851;28;20190;-71
2021/03/14 06:38:31;;;;;;;0.10;0.10;;;;;;;;;;5029212;28;20664;-70
2021/03/14 06:41:00;;;;;;;0.05;0.05;;;;;;;;;;5029207;28;20541;-72
2021/03/14 06:43:30;;;;;;;0.10;0.10;;;;;;;;;;5029318;28;20173;-71
2021/03/14 06:45:56;;;;;;;0.10;0.10;;;;;;;;;;5027885;28;20194;-71
2021/03/14 06:48:27;;;;;;;0.10;0.10;;;;;;;;;;5032321;28;20228;-70
2021/03/14 06:50:53;;;;;;;0.10;0.10;;;;;;;;;;5048731;28;20197;-70
2021/03/14 06:53:21;;;;;;;0.10;0.10;;;;;;;;;;5049085;28;20645;-70
2021/03/14 06:55:50;;;;;;;0.00;0.00;;;;;;;;;;5049056;28;20184;-70
2021/03/14 06:58:19;;;;;;;0.10;0.10;;;;;;;;;;5048841;28;20169;-71
2021/03/14 07:01:03;;;;;;;0.10;0.10;;;;;;;;;;5048852;28;20221;-71
2021/03/14 07:03:30;;;;;;;1.77;0.93;;;;;;;;;;5048831;28;20172;-70
2021/03/14 07:06:14;;;;;;;0.10;0.10;;;;;;;;;;5048812;28;20217;-71
2021/03/14 07:08:41;;;;;;;0.00;0.00;;;;;;;;;;5031208;28;20232;-71
2021/03/14 07:11:07;;;;;;;0.08;0.08;;;;;;;;;;5030835;28;20201;-71
2021/03/14 07:13:35;;;;;;;0.10;0.10;;;;;;;;;;5048868;28;20162;-71
2021/03/14 07:16:02;;;;;;;0.10;0.10;;;;;;;;;;5049882;28;20197;-71
2021/03/14 07:18:28;;;;;;;0.10;0.10;;;;;;;;;;5052629;28;20172;-71
2021/03/14 07:20:55;;;;;;;0.10;0.10;;;;;;;;;;5052388;28;20204;-72
2021/03/14 07:23:34;;;;;;;5.47;2.28;;;;;;;;;;5034611;28;20185;-71
2021/03/14 07:26:01;;;;;;;0.10;0.10;;;;;;;;;;5052339;28;20228;-71
2021/03/14 07:28:27;;;;;;;0.10;0.10;;;;;;;;;;5034639;28;20638;-71
2021/03/14 07:30:54;;;;;;;0.05;0.05;;;;;;;;;;5052313;28;20257;-71
2021/03/14 07:33:21;;;;;;;0.43;0.43;;;;;;;;;;5034558;28;20177;-70
2021/03/14 07:35:49;;;;;;;0.10;0.10;;;;;;;;;;5052246;28;20173;-70
2021/03/14 07:38:15;;;;;;;0.10;0.10;;;;;;;;;;5034380;28;20245;-71
2021/03/14 07:40:42;;;;;;;0.00;0.00;;;;;;;;;;5052074;28;20189;-71
2021/03/14 07:43:09;;;;;;;0.10;0.10;;;;;;;;;;5034217;28;20178;-71
2021/03/14 07:45:35;;;;;;;0.05;0.05;;;;;;;;;;5051951;28;20200;-71
2021/03/14 07:48:02;;;;;;;0.10;0.10;;;;;;;;;;5051715;28;20259;-71
2021/03/14 07:50:35;;;;;;;0.10;0.10;;;;;;;;;;5034090;28;20280;-71
2021/03/14 07:53:07;;;;;;;0.15;0.15;;;;;;;;;;5051869;28;20207;-70
2021/03/14 07:55:33;;;;;;;0.20;0.20;;;;;;;;;;5051961;28;20189;-71
2021/03/14 07:58:00;;;;;;;0.20;0.20;;;;;;;;;;5034324;28;20205;-70
2021/03/14 08:00:26;;;;;;;0.10;0.10;;;;;;;;;;5051673;28;20193;-71
2021/03/14 08:02:53;;;;;;;0.10;0.10;;;;;;;;;;5033710;28;20184;-72
2021/03/14 08:05:40;;;;;;;0.45;0.32;;;;;;;;;;5033656;28;20201;-71
2021/03/14 08:08:12;;;;;;;0.20;0.20;;;;;;;;;;5033819;28;20177;-71
2021/03/14 08:10:38;;;;;;;0.10;0.10;;;;;;;;;;5051521;28;20201;-71
2021/03/14 08:13:06;;;;;;;0.10;0.10;;;;;;;;;;5033845;28;20169;-71
2021/03/14 08:15:33;;;;;;;1.08;1.08;;;;;;;;;;5051438;28;20223;-71
2021/03/14 08:18:01;;;;;;;0.00;0.00;;;;;;;;;;5051438;28;20179;-71
2021/03/14 08:20:38;;;;;;;0.10;0.10;;;;;;;;;;5047619;28;20204;-70
2021/03/14 08:23:05;;;;;;;0.13;0.13;;;;;;;;;;5046506;28;20177;-70
2021/03/14 08:25:38;;;;;;;0.10;0.10;;;;;;;;;;5050788;28;20201;-69
2021/03/14 08:28:23;;;;;;;0.03;0.03;;;;;;;;;;5048899;28;20184;-70
2021/03/14 08:30:50;;;;;;;0.43;0.43;;;;;;;;;;5050996;28;20239;-71
2021/03/14 08:33:21;;;;;;;0.10;0.10;;;;;;;;;;5036868;28;20181;-71
2021/03/14 08:35:52;;;;;;;0.43;0.43;;;;;;;;;;5051168;28;20160;-71
2021/03/14 08:38:24;;;;;;;0.10;0.10;;;;;;;;;;5049926;28;20276;-71
2021/03/14 08:41:10;;;;;;;0.00;0.00;;;;;;;;;;5050706;28;20193;-74
2021/03/14 08:43:44;;;;;;;0.10;0.10;;;;;;;;;;5049455;28;20181;-75
2021/03/14 08:46:11;;;;;;;0.10;0.10;;;;;;;;;;5050749;28;20189;-70
2021/03/14 08:48:37;;;;;;;0.00;0.00;;;;;;;;;;5049967;28;20225;-71
2021/03/14 08:51:07;;;;;;;0.10;0.10;;;;;;;;;;5048420;28;20217;-69
2021/03/14 08:53:35;;;;;;;0.25;0.25;;;;;;;;;;5050570;28;20169;-70
2021/03/14 08:56:01;;;;;;;0.00;0.00;;;;;;;;;;5050596;28;20174;-69
2021/03/14 08:58:27;;;;;;;0.38;0.38;;;;;;;;;;5032710;28;20162;-69
2021/03/14 09:01:10;;;;;;;0.82;0.82;;;;;;;;;;5049487;28;20553;-70
2021/03/14 09:03:40;;;;;;;0.20;0.20;;;;;;;;;;5050503;28;20188;-69
2021/03/14 09:06:26;;;;;;;0.63;0.63;;;;;;;;;;5032439;28;20213;-70
2021/03/14 09:08:56;;;;;;;0.10;0.10;;;;;;;;;;5032496;28;20188;-69
2021/03/14 09:11:37;;;;;;;0.20;0.20;;;;;;;;;;5049203;28;20196;-70
2021/03/14 09:14:20;;;;;;;0.10;0.10;;;;;;;;;;5032541;28;20169;-69
2021/03/14 09:16:49;;;;;;;8.13;1.27;;;;;;;;;;5050158;28;20162;-70
2021/03/14 09:19:24;;;;;;;0.03;0.03;;;;;;;;;;5049999;28;20185;-70
2021/03/14 09:21:52;;;;;;;0.10;0.10;;;;;;;;;;5031138;28;20205;-70
2021/03/14 09:24:38;;;;;;;0.10;0.10;;;;;;;;;;5040996;28;20234;-70
2021/03/14 09:27:07;;;;;;;0.10;0.10;;;;;;;;;;5038425;28;20180;-70
2021/03/14 09:29:46;;;;;;;0.10;0.10;;;;;;;;;;5028276;28;20165;-70
2021/03/14 09:32:16;;;;;;;0.10;0.10;;;;;;;;;;5037811;28;20184;-69
2021/03/14 09:34:42;;;;;;;0.00;0.00;;;;;;;;;;5045627;28;20174;-70
2021/03/14 09:37:08;;;;;;;0.10;0.10;;;;;;;;;;5049779;28;20158;-70
2021/03/14 09:39:35;;;;;;;1.10;1.10;;;;;;;;;;5049397;28;20162;-70
2021/03/14 09:42:01;;;;;;;0.10;0.10;;;;;;;;;;5031807;28;20219;-71
2021/03/14 09:44:27;;;;;;;0.10;0.10;;;;;;;;;;5048726;28;20225;-70
2021/03/14 09:46:54;;;;;;;0.10;0.10;;;;;;;;;;5031564;28;20193;-69
2021/03/14 09:49:20;;;;;;;0.00;0.00;;;;;;;;;;5049548;28;20181;-69
2021/03/14 09:51:56;;;;;;;0.15;0.15;;;;;;;;;;5048022;28;20706;-70
2021/03/14 09:54:23;;;;;;;0.10;0.10;;;;;;;;;;5026990;28;20209;-70
2021/03/14 09:56:51;;;;;;;0.10;0.10;;;;;;;;;;5027357;28;20170;-71
2021/03/14 09:59:24;;;;;;;0.10;0.10;;;;;;;;;;5046327;28;20189;-70
2021/03/14 10:01:51;;;;;;;0.08;0.08;;;;;;;;;;5049339;28;20166;-71
2021/03/14 10:04:18;;;;;;;0.20;0.20;;;;;;;;;;5049002;28;20231;-71
2021/03/14 10:06:45;;;;;;;0.40;0.40;;;;;;;;;;5048263;28;20239;-72
2021/03/14 10:09:22;;;;;;;0.30;0.30;;;;;;;;;;5042929;28;20207;-70
2021/03/14 10:11:48;;;;;;;0.13;0.13;;;;;;;;;;5048038;28;20153;-72
2021/03/14 10:14:18;;;;;;;1.13;1.00;;;;;;;;;;5047384;28;20205;-72
2021/03/14 10:16:45;;;;;;;0.15;0.15;;;;;;;;;;5048091;28;20169;-71
2021/03/14 10:19:12;;;;;;;0.10;0.10;;;;;;;;;;5047824;28;20166;-70
2021/03/14 10:21:46;;;;;;;0.10;0.10;;;;;;;;;;5047723;28;20200;-70
2021/03/14 10:24:16;;;;;;;0.20;0.20;;;;;;;;;;5047694;28;20892;-70
2021/03/14 10:26:55;;;;;;;0.10;0.10;;;;;;;;;;5047871;28;20200;-71
2021/03/14 10:29:22;;;;;;;0.10;0.10;;;;;;;;;;5048987;28;20207;-71
2021/03/14 10:31:49;;;;;;;0.20;0.20;;;;;;;;;;5047881;28;20295;-73
2021/03/14 10:34:19;;;;;;;0.10;0.10;;;;;;;;;;5048765;28;20201;-73
2021/03/14 10:36:46;;;;;;;0.20;0.20;;;;;;;;;;5048762;28;20240;-73
2021/03/14 10:39:12;;;;;;;0.00;0.00;;;;;;;;;;5046910;28;20169;-73
2021/03/14 10:41:43;;;;;;;0.20;0.20;;;;;;;;;;5048655;28;20158;-75
2021/03/14 10:44:09;;;;;;;0.10;0.10;;;;;;;;;;5047484;28;20227;-75
2021/03/14 10:46:46;;;;;;;0.10;0.10;;;;;;;;;;5048838;28;20248;-74
2021/03/14 10:49:13;;;;;;;0.85;0.85;;;;;;;;;;5046437;28;20212;-73
2021/03/14 10:51:40;;;;;;;0.20;0.20;;;;;;;;;;5049595;28;20181;-76
2021/03/14 10:54:08;;;;;;;0.20;0.20;;;;;;;;;;5052855;28;20211;-74
2021/03/14 10:56:39;;;;;;;0.10;0.10;;;;;;;;;;5052831;28;20171;-76
2021/03/14 10:59:06;;;;;;;0.20;0.20;;;;;;;;;;5050479;28;20177;-76
2021/03/14 11:01:41;;;;;;;0.05;0.05;;;;;;;;;;5052661;28;20215;-78
2021/03/14 11:04:09;;;;;;;0.10;0.10;;;;;;;;;;5035119;28;20200;-76
2021/03/14 11:06:35;;;;;;;0.10;0.10;;;;;;;;;;5035129;28;20232;-76
2021/03/14 11:09:04;;;;;;;0.30;0.30;;;;;;;;;;5034863;28;20200;-76
2021/03/14 11:11:38;;;;;;;0.20;0.20;;;;;;;;;;5033655;28;20260;-75
2021/03/14 11:14:24;;;;;;;0.10;0.10;;;;;;;;;;5034683;28;20200;-74
2021/03/14 11:17:13;;;;;;;0.10;0.10;;;;;;;;;;5034548;28;20187;-73
2021/03/14 11:19:44;;;;;;;0.60;0.60;;;;;;;;;;5034559;28;20192;-74
2021/03/14 11:22:14;;;;;;;0.10;0.10;;;;;;;;;;5051229;28;20188;-75
2021/03/14 11:24:40;;;;;;;0.30;0.30;;;;;;;;;;5052345;28;20233;-72
2021/03/14 11:27:07;;;;;;;0.47;0.47;;;;;;;;;;5050273;28;20204;-73
2021/03/14 11:29:33;;;;;;;0.55;0.55;;;;;;;;;;5027961;28;20212;-71
2021/03/14 11:32:00;;;;;;;0.55;0.55;;;;;;;;;;5047385;28;20181;-76
2021/03/14 11:34:26;;;;;;;0.20;0.20;;;;;;;;;;5061046;28;20200;-74
2021/03/14 11:36:53;;;;;;;0.52;0.52;;;;;;;;;;5042368;28;20191;-74
2021/03/14 11:39:19;;;;;;;0.15;0.15;;;;;;;;;;5024769;28;20197;-74
2021/03/14 11:41:46;;;;;;;0.30;0.30;;;;;;;;;;5036236;28;20186;-77
2021/03/14 11:44:13;;;;;;;0.15;0.15;;;;;;;;;;5035904;28;20222;-76
2021/03/14 11:46:39;;;;;;;0.40;0.40;;;;;;;;;;5036260;28;20276;-74
2021/03/14 11:49:06;;;;;;;0.35;0.35;;;;;;;;;;5049788;28;20229;-75
2021/03/14 11:51:33;;;;;;;0.10;0.10;;;;;;;;;;5030014;28;20197;-73
2021/03/14 11:53:59;;;;;;;0.15;0.15;;;;;;;;;;5029936;28;20192;-73
2021/03/14 11:56:26;;;;;;;0.22;0.22;;;;;;;;;;5046135;28;20181;-74
2021/03/14 11:58:52;;;;;;;0.10;0.10;;;;;;;;;;5031277;28;20208;-75
2021/03/14 12:01:19;;;;;;;0.10;0.10;;;;;;;;;;5037696;28;20185;-74
2021/03/14 12:03:46;;;;;;;0.73;0.73;;;;;;;;;;5059148;28;20185;-75
2021/03/14 12:06:13;;;;;;;0.20;0.20;;;;;;;;;;5036683;28;20222;-74
2021/03/14 12:08:40;;;;;;;0.30;0.30;;;;;;;;;;5046168;28;20189;-75
2021/03/14 12:11:07;;;;;;;0.13;0.13;;;;;;;;;;5033411;28;20181;-75
2021/03/14 12:13:33;;;;;;;0.20;0.20;;;;;;;;;;5051207;28;20234;-73
2021/03/14 12:16:00;;;;;;;0.10;0.10;;;;;;;;;;5050897;28;20204;-73
2021/03/14 12:18:27;;;;;;;0.38;0.38;;;;;;;;;;5032814;28;20181;-74
2021/03/14 12:20:53;;;;;;;0.20;0.20;;;;;;;;;;5033123;28;20177;-76
2021/03/14 12:23:19;;;;;;;0.10;0.10;;;;;;;;;;5051240;28;20646;-76
2021/03/14 12:25:46;;;;;;;0.43;0.43;;;;;;;;;;5048481;28;20753;-75
2021/03/14 12:28:12;;;;;;;1.00;1.00;;;;;;;;;;5026269;28;20185;-74
2021/03/14 12:30:38;;;;;;;0.20;0.20;;;;;;;;;;5032344;28;20184;-73
2021/03/14 12:33:04;;;;;;;0.32;0.32;;;;;;;;;;5051116;28;20626;-73
2021/03/14 12:35:31;;;;;;;0.10;0.10;;;;;;;;;;5050825;28;20176;-73
2021/03/14 12:37:57;;;;;;;0.57;0.57;;;;;;;;;;5050989;28;20582;-73
2021/03/14 12:40:23;;;;;;;0.43;0.43;;;;;;;;;;5050247;28;20221;-73
2021/03/14 12:42:49;;;;;;;0.13;0.13;;;;;;;;;;5050280;28;20248;-73
2021/03/14 12:45:15;;;;;;;0.03;0.03;;;;;;;;;;5048959;28;20205;-73
2021/03/14 12:47:42;;;;;;;0.73;0.73;;;;;;;;;;5050606;28;20244;-73
2021/03/14 12:50:08;;;;;;;0.10;0.10;;;;;;;;;;5049178;28;20188;-73
2021/03/14 12:52:35;;;;;;;0.10;0.10;;;;;;;;;;5048662;28;20203;-73
2021/03/14 12:55:01;;;;;;;0.50;0.50;;;;;;;;;;5049294;28;20185;-74
2021/03/14 12:57:27;;;;;;;0.20;0.20;;;;;;;;;;5049297;28;20193;-73
2021/03/14 12:59:54;;;;;;;0.15;0.15;;;;;;;;;;5050330;28;20192;-74
2021/03/14 13:02:20;;;;;;;0.55;0.55;;;;;;;;;;5048426;28;20204;-73
2021/03/14 13:04:46;;;;;;;0.68;0.25;;;;;;;;;;5032499;28;20181;-73
2021/03/14 13:07:12;;;;;;;0.22;0.22;;;;;;;;;;5049501;28;20256;-74
2021/03/14 13:09:39;;;;;;;0.63;0.63;;;;;;;;;;5050138;28;20173;-76
2021/03/14 13:12:07;;;;;;;0.10;0.10;;;;;;;;;;5050237;28;20619;-73
2021/03/14 13:14:33;;;;;;;0.10;0.10;;;;;;;;;;5030756;28;20177;-74
2021/03/14 13:16:59;;;;;;;0.20;0.20;;;;;;;;;;5032408;28;20292;-74
2021/03/14 13:19:26;;;;;;;0.30;0.30;;;;;;;;;;5032254;28;20264;-75
2021/03/14 13:21:53;;;;;;;0.10;0.10;;;;;;;;;;5049021;28;20154;-75
2021/03/14 13:24:19;;;;;;;0.10;0.10;;;;;;;;;;5018660;28;20200;-75
2021/03/14 13:26:45;;;;;;;0.13;0.13;;;;;;;;;;5012451;28;20615;-73
2021/03/14 13:29:12;;;;;;;0.10;0.10;;;;;;;;;;5027987;28;20288;-75
2021/03/14 13:31:38;;;;;;;0.95;0.90;;;;;;;;;;5031966;28;20188;-74
2021/03/14 13:34:04;;;;;;;0.73;0.73;;;;;;;;;;5028345;28;20185;-75
2021/03/14 13:36:31;;;;;;;0.43;0.43;;;;;;;;;;5043232;28;20169;-75
2021/03/14 13:38:58;;;;;;;0.95;0.95;;;;;;;;;;5049902;28;20197;-75
2021/03/14 13:41:24;;;;;;;0.38;0.38;;;;;;;;;;5049829;28;20641;-75
2021/03/14 13:43:50;;;;;;;0.10;0.10;;;;;;;;;;5048857;28;20244;-77
2021/03/14 13:46:17;;;;;;;0.15;0.15;;;;;;;;;;5048665;28;20239;-75
2021/03/14 13:48:44;;;;;;;0.10;0.10;;;;;;;;;;5049237;28;20236;-74
2021/03/14 13:51:12;;;;;;;0.75;0.75;;;;;;;;;;5049588;28;20177;-75
2021/03/14 13:53:39;;;;;;;0.15;0.15;;;;;;;;;;5031809;28;20162;-74
2021/03/14 13:56:05;;;;;;;0.30;0.30;;;;;;;;;;5030959;28;20184;-73
2021/03/14 13:58:33;;;;;;;3.55;1.08;;;;;;;;;;5031411;28;20265;-75
2021/03/14 14:01:00;;;;;;;0.35;0.35;;;;;;;;;;5031677;28;20219;-74
2021/03/14 14:03:28;;;;;;;0.10;0.10;;;;;;;;;;5049424;28;20180;-74
2021/03/14 14:05:54;;;;;;;0.70;0.70;;;;;;;;;;5031384;28;20208;-74
2021/03/14 14:08:21;;;;;;;0.30;0.30;;;;;;;;;;5031485;28;20205;-73
2021/03/14 14:10:47;;;;;;;1.02;1.02;;;;;;;;;;5049266;28;20162;-75
2021/03/14 14:13:14;;;;;;;1.08;1.05;;;;;;;;;;5049145;28;20154;-75
2021/03/14 14:15:40;;;;;;;0.70;0.70;;;;;;;;;;5049264;28;20525;-74
2021/03/14 14:18:07;;;;;;;0.80;0.30;;;;;;;;;;5031324;28;20212;-75
2021/03/14 14:20:35;;;;;;;0.57;0.57;;;;;;;;;;5031311;28;20233;-73
2021/03/14 14:23:01;;;;;;;0.30;0.30;;;;;;;;;;5049141;28;20162;-73
2021/03/14 14:25:28;;;;;;;1.20;1.20;;;;;;;;;;5049016;28;20269;-73
2021/03/14 14:27:59;;;;;;;1.15;0.85;;;;;;;;;;5031197;28;20183;-72
2021/03/14 14:30:26;;;;;;;0.38;0.38;;;;;;;;;;5048712;28;20250;-73
2021/03/14 14:32:52;;;;;;;0.95;0.95;;;;;;;;;;5049014;28;20165;-73
2021/03/14 14:35:19;;;;;;;1.95;0.50;;;;;;;;;;5048611;28;20169;-74
2021/03/14 14:37:45;;;;;;;1.02;1.02;;;;;;;;;;5047710;28;20176;-74
2021/03/14 14:40:11;;;;;;;14.52;0.85;;;;;;;;;;5031725;28;20185;-74
2021/03/14 14:42:37;;;;;;;0.13;0.13;;;;;;;;;;5054359;28;20548;-73
2021/03/14 14:45:05;;;;;;;0.25;0.25;;;;;;;;;;5047810;28;20338;-72
2021/03/14 14:47:31;;;;;;;0.10;0.10;;;;;;;;;;5030889;28;20216;-74